Accueil
METAR-TAF:

METAR-TAF

Aéroports :

Aéroport international V. C. Bird

Antigua, Antigua-et-Barbuda

latitude: 17-07N, longitude: 061-47W, altitude: 8 m

Observation

Le bulletin a été fait il y a 26 minutes, à 19:00 UTC
Vent 10 kt de est, variant entre nord-est et sud-est
Température 29°C
Humidité 66%
Pression 1014 hPa
Visibilité 10 km ou plus
Quelques nuages à une hauteur de 2100 ft

METAR: TAPA 061900Z 08010KT 050V130 9999 FEW021 29/22 Q1014 NOSIG

Heure: 15:26 (19:26 UTC)

Prévision

Le bulletin a été fait il y a 2 heures et 26 minutes, à 17:00 UTC
Prévision valable du 06 à 18 UTC au 07 à 18 UTC
Vent 6 kt de est/sud-est
Visibilité 10 km ou plus
Quelques nuages à une hauteur de 2300 ft

TAF: TAPA 061700Z 0618/0718 12006KT 9999 FEW023

Observations et prévisions météorologiques de plus de 4000 aéroports (messages METAR et TAF).

Les stations disponibles sont représentées par des disques jaunes et rouges sur la carte.

Passer la souris dessus pour voir le nom de la station.

Cliquer dessus pour voir les observations et prévisions météorologiques.

Pour changer de carte: cliquez sur les boutons verts avec une croix noire pour zoomer, sur le bouton vert avec un tiret pour effectuer un zoom arrière, ou sur les flèches vertes pour les cartes adjacentes.


METAR-TAF: